sensor_id;sensor_type;location;lat;lon;timestamp;temperature;humidity
6824;DHT22;58633;49.470;11.004;2023-07-31T00:02:16;17.50;59.50
6824;DHT22;58633;49.470;11.004;2023-07-31T00:04:41;17.70;59.80
6824;DHT22;58633;49.470;11.004;2023-07-31T00:09:33;17.70;59.90
6824;DHT22;58633;49.470;11.004;2023-07-31T00:11:59;17.40;59.50
6824;DHT22;58633;49.470;11.004;2023-07-31T00:14:24;17.60;59.70
6824;DHT22;58633;49.470;11.004;2023-07-31T00:19:16;17.70;59.70
6824;DHT22;58633;49.470;11.004;2023-07-31T00:21:41;17.70;59.80
6824;DHT22;58633;49.470;11.004;2023-07-31T00:24:07;17.70;59.80
6824;DHT22;58633;49.470;11.004;2023-07-31T00:26:33;17.30;59.40
6824;DHT22;58633;49.470;11.004;2023-07-31T00:28:58;17.90;59.90
6824;DHT22;58633;49.470;11.004;2023-07-31T00:31:24;17.90;60.00
6824;DHT22;58633;49.470;11.004;2023-07-31T00:33:49;17.50;59.80
6824;DHT22;58633;49.470;11.004;2023-07-31T00:36:14;17.40;59.60
6824;DHT22;58633;49.470;11.004;2023-07-31T00:41:06;17.10;59.50
6824;DHT22;58633;49.470;11.004;2023-07-31T00:45:57;18.00;60.50
6824;DHT22;58633;49.470;11.004;2023-07-31T00:48:23;17.50;60.10
6824;DHT22;58633;49.470;11.004;2023-07-31T00:53:15;17.30;60.00
6824;DHT22;58633;49.470;11.004;2023-07-31T00:55:40;17.60;60.20
6824;DHT22;58633;49.470;11.004;2023-07-31T00:58:06;17.70;60.30
6824;DHT22;58633;49.470;11.004;2023-07-31T01:02:57;17.70;60.20
6824;DHT22;58633;49.470;11.004;2023-07-31T01:05:54;17.80;60.30
6824;DHT22;58633;49.470;11.004;2023-07-31T01:10:56;17.80;60.10
6824;DHT22;58633;49.470;11.004;2023-07-31T01:13:24;17.70;60.00
6824;DHT22;58633;49.470;11.004;2023-07-31T01:15:50;17.80;60.10
6824;DHT22;58633;49.470;11.004;2023-07-31T01:20:42;17.70;60.10
6824;DHT22;58633;49.470;11.004;2023-07-31T01:25:54;17.90;60.40
6824;DHT22;58633;49.470;11.004;2023-07-31T01:31:22;17.60;60.20
6824;DHT22;58633;49.470;11.004;2023-07-31T01:33:50;17.50;60.20
6824;DHT22;58633;49.470;11.004;2023-07-31T01:38:43;18.00;60.60
6824;DHT22;58633;49.470;11.004;2023-07-31T01:41:09;17.60;60.40
6824;DHT22;58633;49.470;11.004;2023-07-31T01:43:34;17.90;60.60
6824;DHT22;58633;49.470;11.004;2023-07-31T01:48:26;17.60;60.40
6824;DHT22;58633;49.470;11.004;2023-07-31T01:50:51;17.90;60.70
6824;DHT22;58633;49.470;11.004;2023-07-31T01:53:17;17.60;60.50
6824;DHT22;58633;49.470;11.004;2023-07-31T01:58:09;17.80;60.60
6824;DHT22;58633;49.470;11.004;2023-07-31T02:05:26;18.00;61.00
6824;DHT22;58633;49.470;11.004;2023-07-31T02:07:52;17.60;60.70
6824;DHT22;58633;49.470;11.004;2023-07-31T02:10:17;18.00;61.00
6824;DHT22;58633;49.470;11.004;2023-07-31T02:15:09;17.80;61.00
6824;DHT22;58633;49.470;11.004;2023-07-31T02:20:01;17.70;60.90
6824;DHT22;58633;49.470;11.004;2023-07-31T02:27:18;17.60;61.20
6824;DHT22;58633;49.470;11.004;2023-07-31T02:39:27;17.60;62.30
6824;DHT22;58633;49.470;11.004;2023-07-31T02:41:53;17.40;62.10
6824;DHT22;58633;49.470;11.004;2023-07-31T02:44:18;17.60;62.30
6824;DHT22;58633;49.470;11.004;2023-07-31T02:46:45;17.60;62.20
6824;DHT22;58633;49.470;11.004;2023-07-31T02:51:37;17.50;62.30
6824;DHT22;58633;49.470;11.004;2023-07-31T02:54:02;17.70;62.70
6824;DHT22;58633;49.470;11.004;2023-07-31T02:58:54;17.60;62.60
6824;DHT22;58633;49.470;11.004;2023-07-31T03:01:19;17.40;62.30
6824;DHT22;58633;49.470;11.004;2023-07-31T03:03:45;17.60;62.50
6824;DHT22;58633;49.470;11.004;2023-07-31T03:06:10;17.40;62.20
6824;DHT22;58633;49.470;11.004;2023-07-31T03:08:36;17.60;62.50
6824;DHT22;58633;49.470;11.004;2023-07-31T03:11:01;17.70;62.50
6824;DHT22;58633;49.470;11.004;2023-07-31T03:15:52;17.50;62.50
6824;DHT22;58633;49.470;11.004;2023-07-31T03:20:44;17.90;63.00
6824;DHT22;58633;49.470;11.004;2023-07-31T03:23:10;17.60;63.00
6824;DHT22;58633;49.470;11.004;2023-07-31T03:28:01;17.40;62.80
6824;DHT22;58633;49.470;11.004;2023-07-31T03:30:27;17.60;63.00
6824;DHT22;58633;49.470;11.004;2023-07-31T03:32:53;17.60;63.00
6824;DHT22;58633;49.470;11.004;2023-07-31T03:35:18;17.90;63.30
6824;DHT22;58633;49.470;11.004;2023-07-31T03:37:44;17.70;63.10
6824;DHT22;58633;49.470;11.004;2023-07-31T03:40:10;17.40;62.90
6824;DHT22;58633;49.470;11.004;2023-07-31T03:42:35;17.20;63.00
6824;DHT22;58633;49.470;11.004;2023-07-31T03:45:01;17.30;63.10
6824;DHT22;58633;49.470;11.004;2023-07-31T03:49:52;17.40;63.40
6824;DHT22;58633;49.470;11.004;2023-07-31T03:52:18;17.20;63.10
6824;DHT22;58633;49.470;11.004;2023-07-31T03:54:43;17.30;63.00
6824;DHT22;58633;49.470;11.004;2023-07-31T03:57:10;17.20;63.00
6824;DHT22;58633;49.470;11.004;2023-07-31T04:02:04;17.40;63.00
6824;DHT22;58633;49.470;11.004;2023-07-31T04:04:30;17.30;63.00
6824;DHT22;58633;49.470;11.004;2023-07-31T04:06:55;17.70;63.60
6824;DHT22;58633;49.470;11.004;2023-07-31T04:09:21;17.40;63.20
6824;DHT22;58633;49.470;11.004;2023-07-31T04:11:46;17.30;63.30
6824;DHT22;58633;49.470;11.004;2023-07-31T04:14:12;17.20;63.30
6824;DHT22;58633;49.470;11.004;2023-07-31T04:16:37;16.80;63.00
6824;DHT22;58633;49.470;11.004;2023-07-31T04:19:03;17.30;63.40
6824;DHT22;58633;49.470;11.004;2023-07-31T04:23:55;17.30;63.50
6824;DHT22;58633;49.470;11.004;2023-07-31T04:26:21;17.20;63.50
6824;DHT22;58633;49.470;11.004;2023-07-31T04:28:47;17.20;63.50
6824;DHT22;58633;49.470;11.004;2023-07-31T04:31:13;17.40;63.60
6824;DHT22;58633;49.470;11.004;2023-07-31T04:33:38;17.20;63.50
6824;DHT22;58633;49.470;11.004;2023-07-31T04:36:04;17.10;63.50
6824;DHT22;58633;49.470;11.004;2023-07-31T04:40:56;17.10;63.50
6824;DHT22;58633;49.470;11.004;2023-07-31T04:48:15;17.20;63.80
6824;DHT22;58633;49.470;11.004;2023-07-31T04:55:32;17.10;63.90
6824;DHT22;58633;49.470;11.004;2023-07-31T04:57:59;17.20;64.20
6824;DHT22;58633;49.470;11.004;2023-07-31T05:07:42;17.20;64.40
6824;DHT22;58633;49.470;11.004;2023-07-31T05:10:09;17.30;64.50
6824;DHT22;58633;49.470;11.004;2023-07-31T05:15:00;17.10;64.20
6824;DHT22;58633;49.470;11.004;2023-07-31T05:24:43;17.30;64.20
6824;DHT22;58633;49.470;11.004;2023-07-31T05:32:01;17.50;63.80
6824;DHT22;58633;49.470;11.004;2023-07-31T05:34:27;17.50;63.70
6824;DHT22;58633;49.470;11.004;2023-07-31T05:36:53;17.70;63.80
6824;DHT22;58633;49.470;11.004;2023-07-31T05:39:18;17.60;63.70
6824;DHT22;58633;49.470;11.004;2023-07-31T05:41:45;22.00;68.70
6824;DHT22;58633;49.470;11.004;2023-07-31T05:44:10;17.60;63.60
6824;DHT22;58633;49.470;11.004;2023-07-31T05:49:02;17.90;63.30
6824;DHT22;58633;49.470;11.004;2023-07-31T05:51:28;18.10;63.60
6824;DHT22;58633;49.470;11.004;2023-07-31T05:56:19;18.00;63.20
6824;DHT22;58633;49.470;11.004;2023-07-31T05:58:45;17.80;63.40
6824;DHT22;58633;49.470;11.004;2023-07-31T06:01:10;17.90;62.60
6824;DHT22;58633;49.470;11.004;2023-07-31T06:03:35;18.00;62.30
6824;DHT22;58633;49.470;11.004;2023-07-31T06:06:01;17.90;62.10
6824;DHT22;58633;49.470;11.004;2023-07-31T06:08:27;18.00;62.20
6824;DHT22;58633;49.470;11.004;2023-07-31T06:10:52;18.10;62.40
6824;DHT22;58633;49.470;11.004;2023-07-31T06:13:18;18.10;62.10
6824;DHT22;58633;49.470;11.004;2023-07-31T06:15:43;18.20;62.20
6824;DHT22;58633;49.470;11.004;2023-07-31T06:18:09;17.90;61.90
6824;DHT22;58633;49.470;11.004;2023-07-31T06:23:01;18.30;61.90
6824;DHT22;58633;49.470;11.004;2023-07-31T06:25:27;18.30;61.80
6824;DHT22;58633;49.470;11.004;2023-07-31T06:30:19;18.60;61.70
6824;DHT22;58633;49.470;11.004;2023-07-31T06:32:44;18.40;61.60
6824;DHT22;58633;49.470;11.004;2023-07-31T06:35:10;18.50;61.50
6824;DHT22;58633;49.470;11.004;2023-07-31T06:37:35;18.50;61.20
6824;DHT22;58633;49.470;11.004;2023-07-31T06:40:01;18.60;61.20
6824;DHT22;58633;49.470;11.004;2023-07-31T06:42:26;18.30;60.80
6824;DHT22;58633;49.470;11.004;2023-07-31T06:47:18;18.60;60.80
6824;DHT22;58633;49.470;11.004;2023-07-31T06:52:09;18.50;60.80
6824;DHT22;58633;49.470;11.004;2023-07-31T06:54:36;18.90;60.80
6824;DHT22;58633;49.470;11.004;2023-07-31T06:59:28;18.70;60.10
6824;DHT22;58633;49.470;11.004;2023-07-31T07:01:54;18.80;60.10
6824;DHT22;58633;49.470;11.004;2023-07-31T07:04:20;19.00;60.20
6824;DHT22;58633;49.470;11.004;2023-07-31T07:09:11;19.10;60.00
6824;DHT22;58633;49.470;11.004;2023-07-31T07:11:37;19.30;59.90
6824;DHT22;58633;49.470;11.004;2023-07-31T07:14:03;19.40;59.60
6824;DHT22;58633;49.470;11.004;2023-07-31T07:16:29;19.40;59.60
6824;DHT22;58633;49.470;11.004;2023-07-31T07:21:20;19.50;59.40
6824;DHT22;58633;49.470;11.004;2023-07-31T07:23:46;19.50;59.10
6824;DHT22;58633;49.470;11.004;2023-07-31T07:26:11;19.50;59.00
6824;DHT22;58633;49.470;11.004;2023-07-31T07:28:37;19.90;59.40
6824;DHT22;58633;49.470;11.004;2023-07-31T07:31:03;19.60;59.20
6824;DHT22;58633;49.470;11.004;2023-07-31T07:33:28;20.10;60.00
6824;DHT22;58633;49.470;11.004;2023-07-31T07:35:54;19.70;58.80
6824;DHT22;58633;49.470;11.004;2023-07-31T07:38:19;19.60;58.70
6824;DHT22;58633;49.470;11.004;2023-07-31T07:40:45;19.30;58.60
6824;DHT22;58633;49.470;11.004;2023-07-31T07:43:12;19.70;58.80
6824;DHT22;58633;49.470;11.004;2023-07-31T07:45:37;19.70;58.70
6824;DHT22;58633;49.470;11.004;2023-07-31T07:48:03;19.50;58.10
6824;DHT22;58633;49.470;11.004;2023-07-31T07:52:54;19.70;58.60
6824;DHT22;58633;49.470;11.004;2023-07-31T07:55:20;19.70;58.50
6824;DHT22;58633;49.470;11.004;2023-07-31T07:57:46;19.90;58.30
6824;DHT22;58633;49.470;11.004;2023-07-31T08:00:12;20.10;58.20
6824;DHT22;58633;49.470;11.004;2023-07-31T08:02:38;19.90;58.20
6824;DHT22;58633;49.470;11.004;2023-07-31T08:05:04;20.20;58.20
6824;DHT22;58633;49.470;11.004;2023-07-31T08:07:30;20.10;57.80
6824;DHT22;58633;49.470;11.004;2023-07-31T08:09:55;20.30;58.00
6824;DHT22;58633;49.470;11.004;2023-07-31T08:19:38;20.20;57.20
6824;DHT22;58633;49.470;11.004;2023-07-31T08:22:04;20.30;57.40
6824;DHT22;58633;49.470;11.004;2023-07-31T08:26:55;20.40;57.40
6824;DHT22;58633;49.470;11.004;2023-07-31T08:29:21;20.50;57.40
6824;DHT22;58633;49.470;11.004;2023-07-31T08:31:46;20.70;57.30
6824;DHT22;58633;49.470;11.004;2023-07-31T08:34:12;20.50;56.80
6824;DHT22;58633;49.470;11.004;2023-07-31T08:36:37;20.60;56.70
6824;DHT22;58633;49.470;11.004;2023-07-31T08:39:03;20.60;56.70
6824;DHT22;58633;49.470;11.004;2023-07-31T08:41:29;20.70;56.70
6824;DHT22;58633;49.470;11.004;2023-07-31T08:43:55;20.60;57.00
6824;DHT22;58633;49.470;11.004;2023-07-31T08:46:22;20.60;57.10
6824;DHT22;58633;49.470;11.004;2023-07-31T08:48:47;20.90;57.20
6824;DHT22;58633;49.470;11.004;2023-07-31T08:51:14;20.80;56.90
6824;DHT22;58633;49.470;11.004;2023-07-31T08:53:40;20.70;56.80
6824;DHT22;58633;49.470;11.004;2023-07-31T08:56:06;20.90;56.90
6824;DHT22;58633;49.470;11.004;2023-07-31T08:58:32;20.80;56.30
6824;DHT22;58633;49.470;11.004;2023-07-31T09:01:03;20.80;56.70
6824;DHT22;58633;49.470;11.004;2023-07-31T09:03:32;20.80;56.40
6824;DHT22;58633;49.470;11.004;2023-07-31T09:05:58;20.90;56.80
6824;DHT22;58633;49.470;11.004;2023-07-31T09:08:26;20.80;56.80
6824;DHT22;58633;49.470;11.004;2023-07-31T09:10:59;20.80;57.20
6824;DHT22;58633;49.470;11.004;2023-07-31T09:13:28;20.90;56.70
6824;DHT22;58633;49.470;11.004;2023-07-31T09:15:54;21.10;56.60
6824;DHT22;58633;49.470;11.004;2023-07-31T09:18:20;21.30;56.50
6824;DHT22;58633;49.470;11.004;2023-07-31T09:21:06;21.40;56.30
6824;DHT22;58633;49.470;11.004;2023-07-31T09:23:46;21.80;55.80
6824;DHT22;58633;49.470;11.004;2023-07-31T09:26:35;21.70;55.20
6824;DHT22;58633;49.470;11.004;2023-07-31T09:29:01;21.80;55.70
6824;DHT22;58633;49.470;11.004;2023-07-31T09:31:42;21.60;55.40
6824;DHT22;58633;49.470;11.004;2023-07-31T09:34:08;21.70;55.50
6824;DHT22;58633;49.470;11.004;2023-07-31T09:36:43;22.00;55.60
6824;DHT22;58633;49.470;11.004;2023-07-31T09:39:10;22.10;55.50
6824;DHT22;58633;49.470;11.004;2023-07-31T09:41:38;22.10;55.20
6824;DHT22;58633;49.470;11.004;2023-07-31T09:44:04;22.20;54.80
6824;DHT22;58633;49.470;11.004;2023-07-31T09:46:30;22.30;54.40
6824;DHT22;58633;49.470;11.004;2023-07-31T09:49:09;22.30;53.90
6824;DHT22;58633;49.470;11.004;2023-07-31T09:51:37;22.20;54.00
6824;DHT22;58633;49.470;11.004;2023-07-31T09:54:16;22.20;54.40
6824;DHT22;58633;49.470;11.004;2023-07-31T09:56:49;22.20;54.60
6824;DHT22;58633;49.470;11.004;2023-07-31T09:59:16;22.30;54.60
6824;DHT22;58633;49.470;11.004;2023-07-31T10:01:44;22.20;54.20
6824;DHT22;58633;49.470;11.004;2023-07-31T10:04:10;22.30;54.20
6824;DHT22;58633;49.470;11.004;2023-07-31T10:06:37;22.30;54.10
6824;DHT22;58633;49.470;11.004;2023-07-31T10:09:07;22.30;54.20
6824;DHT22;58633;49.470;11.004;2023-07-31T10:11:42;22.30;54.10
6824;DHT22;58633;49.470;11.004;2023-07-31T10:14:10;22.50;53.80
6824;DHT22;58633;49.470;11.004;2023-07-31T10:16:38;22.40;54.10
6824;DHT22;58633;49.470;11.004;2023-07-31T10:19:05;22.30;53.60
6824;DHT22;58633;49.470;11.004;2023-07-31T10:21:33;22.30;53.80
6824;DHT22;58633;49.470;11.004;2023-07-31T10:24:03;22.30;53.90
6824;DHT22;58633;49.470;11.004;2023-07-31T10:26:33;22.30;54.40
6824;DHT22;58633;49.470;11.004;2023-07-31T10:29:00;22.30;54.40
6824;DHT22;58633;49.470;11.004;2023-07-31T10:31:27;22.40;54.40
6824;DHT22;58633;49.470;11.004;2023-07-31T10:33:54;22.50;54.70
6824;DHT22;58633;49.470;11.004;2023-07-31T10:36:21;22.80;54.50
6824;DHT22;58633;49.470;11.004;2023-07-31T10:38:49;22.80;53.00
6824;DHT22;58633;49.470;11.004;2023-07-31T10:41:15;22.90;53.30
6824;DHT22;58633;49.470;11.004;2023-07-31T10:43:40;22.90;53.10
6824;DHT22;58633;49.470;11.004;2023-07-31T10:46:12;22.90;53.60
6824;DHT22;58633;49.470;11.004;2023-07-31T10:48:39;23.10;52.70
6824;DHT22;58633;49.470;11.004;2023-07-31T10:51:08;23.30;52.30
6824;DHT22;58633;49.470;11.004;2023-07-31T10:53:34;23.70;52.20
6824;DHT22;58633;49.470;11.004;2023-07-31T10:56:00;23.80;51.10
6824;DHT22;58633;49.470;11.004;2023-07-31T10:58:26;23.80;51.60
6824;DHT22;58633;49.470;11.004;2023-07-31T11:00:56;23.70;51.00
6824;DHT22;58633;49.470;11.004;2023-07-31T11:03:25;23.40;51.10
6824;DHT22;58633;49.470;11.004;2023-07-31T11:05:53;23.20;50.90
6824;DHT22;58633;49.470;11.004;2023-07-31T11:10:49;23.20;51.60
6824;DHT22;58633;49.470;11.004;2023-07-31T11:13:15;23.20;51.40
6824;DHT22;58633;49.470;11.004;2023-07-31T11:15:40;23.20;51.30
6824;DHT22;58633;49.470;11.004;2023-07-31T11:18:06;23.10;50.90
6824;DHT22;58633;49.470;11.004;2023-07-31T11:20:34;23.20;51.00
6824;DHT22;58633;49.470;11.004;2023-07-31T11:23:06;24.80;52.90
6824;DHT22;58633;49.470;11.004;2023-07-31T11:25:32;23.00;51.80
6824;DHT22;58633;49.470;11.004;2023-07-31T11:28:06;22.90;52.10
6824;DHT22;58633;49.470;11.004;2023-07-31T11:30:32;22.90;52.10
6824;DHT22;58633;49.470;11.004;2023-07-31T11:32:58;22.90;52.20
6824;DHT22;58633;49.470;11.004;2023-07-31T11:35:23;22.90;51.80
6824;DHT22;58633;49.470;11.004;2023-07-31T11:37:49;22.70;51.40
6824;DHT22;58633;49.470;11.004;2023-07-31T11:40:15;22.80;51.50
6824;DHT22;58633;49.470;11.004;2023-07-31T11:42:41;22.90;51.30
6824;DHT22;58633;49.470;11.004;2023-07-31T11:45:08;22.90;51.70
6824;DHT22;58633;49.470;11.004;2023-07-31T11:47:35;23.00;51.70
6824;DHT22;58633;49.470;11.004;2023-07-31T11:50:02;23.00;51.70
6824;DHT22;58633;49.470;11.004;2023-07-31T11:52:35;23.00;51.80
6824;DHT22;58633;49.470;11.004;2023-07-31T11:57:28;23.10;51.80
6824;DHT22;58633;49.470;11.004;2023-07-31T11:59:55;23.00;51.90
6824;DHT22;58633;49.470;11.004;2023-07-31T12:02:21;23.00;51.90
6824;DHT22;58633;49.470;11.004;2023-07-31T12:04:47;23.00;51.90
6824;DHT22;58633;49.470;11.004;2023-07-31T12:07:13;23.00;51.70
6824;DHT22;58633;49.470;11.004;2023-07-31T12:09:51;23.10;51.80
6824;DHT22;58633;49.470;11.004;2023-07-31T12:12:20;23.20;51.90
6824;DHT22;58633;49.470;11.004;2023-07-31T12:14:46;23.10;51.60
6824;DHT22;58633;49.470;11.004;2023-07-31T12:17:11;23.10;52.00
6824;DHT22;58633;49.470;11.004;2023-07-31T12:19:37;23.10;51.40
6824;DHT22;58633;49.470;11.004;2023-07-31T12:22:14;22.90;50.70
6824;DHT22;58633;49.470;11.004;2023-07-31T12:24:44;23.10;51.00
6824;DHT22;58633;49.470;11.004;2023-07-31T12:27:14;23.00;52.00
6824;DHT22;58633;49.470;11.004;2023-07-31T12:29:41;23.50;51.10
6824;DHT22;58633;49.470;11.004;2023-07-31T12:32:24;23.20;51.00
6824;DHT22;58633;49.470;11.004;2023-07-31T12:34:51;23.30;51.00
6824;DHT22;58633;49.470;11.004;2023-07-31T12:37:17;23.40;50.60
6824;DHT22;58633;49.470;11.004;2023-07-31T12:39:42;23.40;51.10
6824;DHT22;58633;49.470;11.004;2023-07-31T12:42:08;23.10;50.70
6824;DHT22;58633;49.470;11.004;2023-07-31T12:46:59;23.40;50.60
6824;DHT22;58633;49.470;11.004;2023-07-31T12:49:25;23.50;50.70
6824;DHT22;58633;49.470;11.004;2023-07-31T12:51:50;23.40;50.60
6824;DHT22;58633;49.470;11.004;2023-07-31T12:54:16;23.40;50.60
6824;DHT22;58633;49.470;11.004;2023-07-31T12:56:41;23.70;50.80
6824;DHT22;58633;49.470;11.004;2023-07-31T12:59:07;23.60;50.30
6824;DHT22;58633;49.470;11.004;2023-07-31T13:01:32;23.50;49.70
6824;DHT22;58633;49.470;11.004;2023-07-31T13:03:58;23.30;49.60
6824;DHT22;58633;49.470;11.004;2023-07-31T13:06:25;23.30;50.20
6824;DHT22;58633;49.470;11.004;2023-07-31T13:08:51;23.30;50.00
6824;DHT22;58633;49.470;11.004;2023-07-31T13:11:16;23.40;49.90
6824;DHT22;58633;49.470;11.004;2023-07-31T13:13:42;23.60;49.80
6824;DHT22;58633;49.470;11.004;2023-07-31T13:16:07;24.00;49.70
6824;DHT22;58633;49.470;11.004;2023-07-31T13:20:59;24.40;49.40
6824;DHT22;58633;49.470;11.004;2023-07-31T13:23:24;24.60;49.00
6824;DHT22;58633;49.470;11.004;2023-07-31T13:25:50;24.90;48.50
6824;DHT22;58633;49.470;11.004;2023-07-31T13:28:15;25.10;47.60
6824;DHT22;58633;49.470;11.004;2023-07-31T13:30:41;25.40;47.50
6824;DHT22;58633;49.470;11.004;2023-07-31T13:33:06;25.50;48.00
6824;DHT22;58633;49.470;11.004;2023-07-31T13:35:32;26.20;47.00
6824;DHT22;58633;49.470;11.004;2023-07-31T13:37:58;26.20;46.30
6824;DHT22;58633;49.470;11.004;2023-07-31T13:40:23;26.30;45.80
6824;DHT22;58633;49.470;11.004;2023-07-31T13:42:49;26.60;46.10
6824;DHT22;58633;49.470;11.004;2023-07-31T13:45:14;26.50;46.50
6824;DHT22;58633;49.470;11.004;2023-07-31T13:47:40;26.40;45.50
6824;DHT22;58633;49.470;11.004;2023-07-31T13:50:06;26.10;45.80
6824;DHT22;58633;49.470;11.004;2023-07-31T13:52:31;25.90;45.60
6824;DHT22;58633;49.470;11.004;2023-07-31T13:54:57;26.20;46.20
6824;DHT22;58633;49.470;11.004;2023-07-31T13:57:22;26.60;44.90
6824;DHT22;58633;49.470;11.004;2023-07-31T13:59:48;26.50;45.00
6824;DHT22;58633;49.470;11.004;2023-07-31T14:02:14;26.50;45.40
6824;DHT22;58633;49.470;11.004;2023-07-31T14:04:40;26.10;45.70
6824;DHT22;58633;49.470;11.004;2023-07-31T14:07:06;26.20;46.10
6824;DHT22;58633;49.470;11.004;2023-07-31T14:09:31;26.30;46.60
6824;DHT22;58633;49.470;11.004;2023-07-31T14:11:57;26.10;45.60
6824;DHT22;58633;49.470;11.004;2023-07-31T14:14:23;26.10;46.10
6824;DHT22;58633;49.470;11.004;2023-07-31T14:16:48;26.20;45.50
6824;DHT22;58633;49.470;11.004;2023-07-31T14:19:14;26.30;45.00
6824;DHT22;58633;49.470;11.004;2023-07-31T14:21:39;26.00;44.70
6824;DHT22;58633;49.470;11.004;2023-07-31T14:24:05;25.90;45.40
6824;DHT22;58633;49.470;11.004;2023-07-31T14:26:31;25.70;45.60
6824;DHT22;58633;49.470;11.004;2023-07-31T14:28:57;25.60;45.90
6824;DHT22;58633;49.470;11.004;2023-07-31T14:31:22;25.60;46.40
6824;DHT22;58633;49.470;11.004;2023-07-31T14:38:40;25.40;46.40
6824;DHT22;58633;49.470;11.004;2023-07-31T14:41:06;25.50;47.00
6824;DHT22;58633;49.470;11.004;2023-07-31T14:43:31;25.00;46.60
6824;DHT22;58633;49.470;11.004;2023-07-31T14:45:57;25.00;47.20
6824;DHT22;58633;49.470;11.004;2023-07-31T14:48:25;24.70;47.20
6824;DHT22;58633;49.470;11.004;2023-07-31T14:50:51;24.60;47.50
6824;DHT22;58633;49.470;11.004;2023-07-31T14:53:16;24.60;48.10
6824;DHT22;58633;49.470;11.004;2023-07-31T14:58:08;24.30;48.30
6824;DHT22;58633;49.470;11.004;2023-07-31T15:00:35;24.20;48.50
6824;DHT22;58633;49.470;11.004;2023-07-31T15:05:26;24.10;49.10
6824;DHT22;58633;49.470;11.004;2023-07-31T15:07:52;24.00;49.20
6824;DHT22;58633;49.470;11.004;2023-07-31T15:10:17;24.00;49.80
6824;DHT22;58633;49.470;11.004;2023-07-31T15:12:43;24.10;49.70
6824;DHT22;58633;49.470;11.004;2023-07-31T15:15:09;23.60;49.30
6824;DHT22;58633;49.470;11.004;2023-07-31T15:17:34;23.80;49.70
6824;DHT22;58633;49.470;11.004;2023-07-31T15:20:00;23.80;50.00
6824;DHT22;58633;49.470;11.004;2023-07-31T15:22:26;25.80;52.10
6824;DHT22;58633;49.470;11.004;2023-07-31T15:24:51;23.80;50.30
6824;DHT22;58633;49.470;11.004;2023-07-31T15:27:17;23.80;50.40
6824;DHT22;58633;49.470;11.004;2023-07-31T15:29:42;23.60;50.10
6824;DHT22;58633;49.470;11.004;2023-07-31T15:32:08;23.70;50.00
6824;DHT22;58633;49.470;11.004;2023-07-31T15:34:34;23.70;50.30
6824;DHT22;58633;49.470;11.004;2023-07-31T15:36:59;23.50;50.20
6824;DHT22;58633;49.470;11.004;2023-07-31T15:39:25;23.50;50.30
6824;DHT22;58633;49.470;11.004;2023-07-31T15:41:50;23.50;50.40
6824;DHT22;58633;49.470;11.004;2023-07-31T15:44:16;23.60;50.40
6824;DHT22;58633;49.470;11.004;2023-07-31T15:46:41;23.50;50.40
6824;DHT22;58633;49.470;11.004;2023-07-31T15:51:33;23.50;50.80
6824;DHT22;58633;49.470;11.004;2023-07-31T15:53:59;23.30;50.70
6824;DHT22;58633;49.470;11.004;2023-07-31T15:56:25;23.60;50.90
6824;DHT22;58633;49.470;11.004;2023-07-31T15:58:50;23.50;50.90
6824;DHT22;58633;49.470;11.004;2023-07-31T16:01:16;23.70;51.00
6824;DHT22;58633;49.470;11.004;2023-07-31T16:03:42;23.80;51.00
6824;DHT22;58633;49.470;11.004;2023-07-31T16:06:07;23.90;50.50
6824;DHT22;58633;49.470;11.004;2023-07-31T16:10:58;24.10;50.00
6824;DHT22;58633;49.470;11.004;2023-07-31T16:13:24;24.30;50.00
6824;DHT22;58633;49.470;11.004;2023-07-31T16:15:50;24.20;50.20
6824;DHT22;58633;49.470;11.004;2023-07-31T16:18:15;24.10;50.10
6824;DHT22;58633;49.470;11.004;2023-07-31T16:23:06;24.30;49.80
6824;DHT22;58633;49.470;11.004;2023-07-31T16:25:33;24.30;49.90
6824;DHT22;58633;49.470;11.004;2023-07-31T16:27:59;24.30;50.00
6824;DHT22;58633;49.470;11.004;2023-07-31T16:30:24;24.30;50.20
6824;DHT22;58633;49.470;11.004;2023-07-31T16:32:50;24.20;50.40
6824;DHT22;58633;49.470;11.004;2023-07-31T16:35:15;24.10;50.50
6824;DHT22;58633;49.470;11.004;2023-07-31T16:37:41;24.10;50.80
6824;DHT22;58633;49.470;11.004;2023-07-31T16:40:07;23.70;50.50
6824;DHT22;58633;49.470;11.004;2023-07-31T16:42:34;24.00;50.90
6824;DHT22;58633;49.470;11.004;2023-07-31T16:44:59;24.00;51.40
6824;DHT22;58633;49.470;11.004;2023-07-31T16:47:25;23.90;51.00
6824;DHT22;58633;49.470;11.004;2023-07-31T16:49:51;24.00;51.40
6824;DHT22;58633;49.470;11.004;2023-07-31T16:52:17;23.90;51.30
6824;DHT22;58633;49.470;11.004;2023-07-31T16:54:42;23.90;51.40
6824;DHT22;58633;49.470;11.004;2023-07-31T16:57:08;24.00;51.50
6824;DHT22;58633;49.470;11.004;2023-07-31T16:59:34;23.90;51.50
6824;DHT22;58633;49.470;11.004;2023-07-31T17:01:59;23.80;51.50
6824;DHT22;58633;49.470;11.004;2023-07-31T17:04:25;23.70;51.50
6824;DHT22;58633;49.470;11.004;2023-07-31T17:06:50;23.90;52.20
6824;DHT22;58633;49.470;11.004;2023-07-31T17:09:16;23.80;52.00
6824;DHT22;58633;49.470;11.004;2023-07-31T17:11:42;23.80;52.10
6824;DHT22;58633;49.470;11.004;2023-07-31T17:14:07;23.80;52.50
6824;DHT22;58633;49.470;11.004;2023-07-31T17:16:36;23.80;52.10
6824;DHT22;58633;49.470;11.004;2023-07-31T17:19:02;23.70;52.00
6824;DHT22;58633;49.470;11.004;2023-07-31T17:21:28;23.70;52.10
6824;DHT22;58633;49.470;11.004;2023-07-31T17:23:54;23.50;52.10
6824;DHT22;58633;49.470;11.004;2023-07-31T17:26:20;23.60;52.40
6824;DHT22;58633;49.470;11.004;2023-07-31T17:28:45;23.50;52.50
6824;DHT22;58633;49.470;11.004;2023-07-31T17:31:11;23.60;52.80
6824;DHT22;58633;49.470;11.004;2023-07-31T17:33:41;23.40;52.70
6824;DHT22;58633;49.470;11.004;2023-07-31T17:36:07;23.40;52.80
6824;DHT22;58633;49.470;11.004;2023-07-31T17:38:32;23.30;52.80
6824;DHT22;58633;49.470;11.004;2023-07-31T17:40:58;23.40;52.90
6824;DHT22;58633;49.470;11.004;2023-07-31T17:43:23;23.60;53.30
6824;DHT22;58633;49.470;11.004;2023-07-31T17:45:52;23.40;53.40
6824;DHT22;58633;49.470;11.004;2023-07-31T17:48:18;23.50;53.60
6824;DHT22;58633;49.470;11.004;2023-07-31T17:50:49;23.40;53.60
6824;DHT22;58633;49.470;11.004;2023-07-31T17:53:16;23.30;53.60
6824;DHT22;58633;49.470;11.004;2023-07-31T17:55:41;23.40;53.60
6824;DHT22;58633;49.470;11.004;2023-07-31T17:58:07;23.30;53.70
6824;DHT22;58633;49.470;11.004;2023-07-31T18:00:32;23.50;54.10
6824;DHT22;58633;49.470;11.004;2023-07-31T18:02:58;23.30;53.90
6824;DHT22;58633;49.470;11.004;2023-07-31T18:05:24;23.00;54.10
6824;DHT22;58633;49.470;11.004;2023-07-31T18:12:41;23.10;54.60
6824;DHT22;58633;49.470;11.004;2023-07-31T18:15:07;23.20;54.70
6824;DHT22;58633;49.470;11.004;2023-07-31T18:17:33;23.00;54.50
6824;DHT22;58633;49.470;11.004;2023-07-31T18:19:58;23.00;54.60
6824;DHT22;58633;49.470;11.004;2023-07-31T18:22:24;23.00;54.60